Terminal Aerodrome Forecast
Issued by NWS

Home | Current Version | Previous Version | Text Only | Print | Product List | Glossary On
Versions: 1 2 3 4 5 6 7 8 9 10 11 12 13 14 15 16 17
000
FTUS43 KDTX 252324
TAFPTK
TAF
KPTK 252324Z 2600/2624 33008KT P6SM OVC008
      TEMPO 2600/2603 P6SM BKN012 OVC022
     FM260300 31008KT P6SM OVC008
     FM261200 30007KT P6SM OVC018
     FM262000 24006KT P6SM OVC035=

USA.gov is the U.S. government's official web portal to all federal, state and local government web resources and services.